sensor_id;sensor_type;location;lat;lon;timestamp;pressure;altitude;pressure_sealevel;temperature;humidity
50632;BME280;49583;45.590;-122.498;2023-03-14T00:01:26;100600.20;;;4.53;84.50
50632;BME280;49583;45.590;-122.498;2023-03-14T00:03:42;100605.85;;;4.54;84.14
50632;BME280;49583;45.590;-122.498;2023-03-14T00:05:57;100607.93;;;4.58;84.30
50632;BME280;49583;45.590;-122.498;2023-03-14T00:08:16;100600.03;;;4.61;84.37
50632;BME280;49583;45.590;-122.498;2023-03-14T00:10:32;100603.52;;;4.66;84.26
50632;BME280;49583;45.590;-122.498;2023-03-14T00:12:49;100614.66;;;4.69;84.53
50632;BME280;49583;45.590;-122.498;2023-03-14T00:15:06;100606.37;;;4.70;84.14
50632;BME280;49583;45.590;-122.498;2023-03-14T00:17:22;100610.63;;;4.72;84.39
50632;BME280;49583;45.590;-122.498;2023-03-14T00:19:38;100611.69;;;4.73;84.21
50632;BME280;49583;45.590;-122.498;2023-03-14T00:21:55;100601.27;;;4.74;84.06
50632;BME280;49583;45.590;-122.498;2023-03-14T00:24:10;100605.46;;;4.76;84.11
50632;BME280;49583;45.590;-122.498;2023-03-14T00:26:25;100610.64;;;4.77;84.14
50632;BME280;49583;45.590;-122.498;2023-03-14T00:28:41;100610.92;;;4.77;84.14
50632;BME280;49583;45.590;-122.498;2023-03-14T00:30:59;100620.78;;;4.79;83.95
50632;BME280;49583;45.590;-122.498;2023-03-14T00:33:17;100621.60;;;4.80;83.96
50632;BME280;49583;45.590;-122.498;2023-03-14T00:35:33;100610.98;;;4.83;84.09
50632;BME280;49583;45.590;-122.498;2023-03-14T00:37:52;100612.05;;;4.87;84.35
50632;BME280;49583;45.590;-122.498;2023-03-14T00:40:10;100599.65;;;4.89;83.89
50632;BME280;49583;45.590;-122.498;2023-03-14T00:42:28;100603.58;;;4.90;84.15
50632;BME280;49583;45.590;-122.498;2023-03-14T00:44:47;100608.66;;;4.92;83.94
50632;BME280;49583;45.590;-122.498;2023-03-14T00:50:12;100604.39;;;5.00;84.16
50632;BME280;49583;45.590;-122.498;2023-03-14T00:52:27;100614.73;;;5.02;83.94
50632;BME280;49583;45.590;-122.498;2023-03-14T00:54:40;100625.60;;;5.05;84.14
50632;BME280;49583;45.590;-122.498;2023-03-14T00:56:54;100627.23;;;5.07;84.15
50632;BME280;49583;45.590;-122.498;2023-03-14T00:59:07;100634.99;;;5.08;84.29
50632;BME280;49583;45.590;-122.498;2023-03-14T01:01:21;100638.17;;;5.11;84.10
50632;BME280;49583;45.590;-122.498;2023-03-14T01:03:33;100643.58;;;5.14;84.20
50632;BME280;49583;45.590;-122.498;2023-03-14T01:05:46;100643.52;;;5.18;84.44
50632;BME280;49583;45.590;-122.498;2023-03-14T01:07:59;100645.86;;;5.20;84.24
50632;BME280;49583;45.590;-122.498;2023-03-14T01:10:13;100646.00;;;5.19;84.28
50632;BME280;49583;45.590;-122.498;2023-03-14T01:12:26;100646.41;;;5.23;84.21
50632;BME280;49583;45.590;-122.498;2023-03-14T01:14:39;100643.64;;;5.24;84.10
50632;BME280;49583;45.590;-122.498;2023-03-14T01:16:52;100642.71;;;5.28;84.32
50632;BME280;49583;45.590;-122.498;2023-03-14T01:19:05;100646.20;;;5.30;84.13
50632;BME280;49583;45.590;-122.498;2023-03-14T01:21:20;100646.84;;;5.31;84.35
50632;BME280;49583;45.590;-122.498;2023-03-14T01:23:33;100652.83;;;5.34;84.12
50632;BME280;49583;45.590;-122.498;2023-03-14T01:25:46;100654.39;;;5.36;84.49
50632;BME280;49583;45.590;-122.498;2023-03-14T01:28:00;100658.44;;;5.40;84.45
50632;BME280;49583;45.590;-122.498;2023-03-14T01:30:14;100659.42;;;5.41;84.33
50632;BME280;49583;45.590;-122.498;2023-03-14T01:32:26;100672.27;;;5.43;84.32
50632;BME280;49583;45.590;-122.498;2023-03-14T01:34:39;100672.77;;;5.42;83.94
50632;BME280;49583;45.590;-122.498;2023-03-14T01:36:52;100675.33;;;5.41;83.69
50632;BME280;49583;45.590;-122.498;2023-03-14T01:39:05;100678.48;;;5.40;83.61
50632;BME280;49583;45.590;-122.498;2023-03-14T01:41:20;100678.47;;;5.40;83.57
50632;BME280;49583;45.590;-122.498;2023-03-14T01:43:36;100679.79;;;5.40;83.67
50632;BME280;49583;45.590;-122.498;2023-03-14T01:48:40;100683.62;;;5.43;83.59
50632;BME280;49583;45.590;-122.498;2023-03-14T01:50:55;100685.73;;;5.43;83.41
50632;BME280;49583;45.590;-122.498;2023-03-14T01:53:08;100683.30;;;5.47;83.74
50632;BME280;49583;45.590;-122.498;2023-03-14T01:55:25;100689.55;;;5.50;83.83
50632;BME280;49583;45.590;-122.498;2023-03-14T01:57:39;100693.02;;;5.53;83.74
50632;BME280;49583;45.590;-122.498;2023-03-14T01:59:57;100692.35;;;5.55;83.77
50632;BME280;49583;45.590;-122.498;2023-03-14T02:02:21;100695.98;;;5.57;83.79
50632;BME280;49583;45.590;-122.498;2023-03-14T02:04:37;100695.58;;;5.59;83.59
50632;BME280;49583;45.590;-122.498;2023-03-14T02:06:58;100697.85;;;5.61;83.62
50632;BME280;49583;45.590;-122.498;2023-03-14T02:09:16;100696.90;;;5.60;83.62
50632;BME280;49583;45.590;-122.498;2023-03-14T02:11:32;100698.58;;;5.60;83.44
50632;BME280;49583;45.590;-122.498;2023-03-14T02:13:52;100697.76;;;5.60;83.43
50632;BME280;49583;45.590;-122.498;2023-03-14T02:16:37;100701.65;;;5.61;83.31
50632;BME280;49583;45.590;-122.498;2023-03-14T02:19:22;100703.80;;;5.62;83.47
50632;BME280;49583;45.590;-122.498;2023-03-14T02:22:25;100711.27;;;5.62;83.27
50632;BME280;49583;45.590;-122.498;2023-03-14T02:30:58;100715.78;;;5.61;83.04
50632;BME280;49583;45.590;-122.498;2023-03-14T02:33:15;100718.17;;;5.61;83.12
50632;BME280;49583;45.590;-122.498;2023-03-14T02:35:31;100715.23;;;5.59;82.90
50632;BME280;49583;45.590;-122.498;2023-03-14T02:37:49;100718.45;;;5.57;82.74
50632;BME280;49583;45.590;-122.498;2023-03-14T02:40:06;100721.82;;;5.56;82.93
50632;BME280;49583;45.590;-122.498;2023-03-14T02:42:20;100726.35;;;5.55;82.96
50632;BME280;49583;45.590;-122.498;2023-03-14T02:44:34;100726.41;;;5.53;82.91
50632;BME280;49583;45.590;-122.498;2023-03-14T02:46:47;100734.47;;;5.51;82.72
50632;BME280;49583;45.590;-122.498;2023-03-14T02:49:02;100740.40;;;5.48;82.71
50632;BME280;49583;45.590;-122.498;2023-03-14T02:51:16;100742.51;;;5.47;82.82
50632;BME280;49583;45.590;-122.498;2023-03-14T02:53:31;100749.19;;;5.45;82.66
50632;BME280;49583;45.590;-122.498;2023-03-14T02:55:50;100753.69;;;5.43;82.72
50632;BME280;49583;45.590;-122.498;2023-03-14T02:58:04;100750.36;;;5.44;82.77
50632;BME280;49583;45.590;-122.498;2023-03-14T03:00:18;100753.56;;;5.42;82.63
50632;BME280;49583;45.590;-122.498;2023-03-14T03:02:33;100756.41;;;5.40;82.64
50632;BME280;49583;45.590;-122.498;2023-03-14T03:04:46;100762.65;;;5.39;82.52
50632;BME280;49583;45.590;-122.498;2023-03-14T03:06:59;100768.84;;;5.37;82.50
50632;BME280;49583;45.590;-122.498;2023-03-14T03:09:13;100776.89;;;5.36;82.54
50632;BME280;49583;45.590;-122.498;2023-03-14T03:11:27;100774.16;;;5.34;82.45
50632;BME280;49583;45.590;-122.498;2023-03-14T03:13:40;100776.88;;;5.32;82.51
50632;BME280;49583;45.590;-122.498;2023-03-14T03:15:53;100778.89;;;5.32;82.52
50632;BME280;49583;45.590;-122.498;2023-03-14T03:18:07;100779.72;;;5.32;82.34
50632;BME280;49583;45.590;-122.498;2023-03-14T03:20:21;100783.73;;;5.30;82.32
50632;BME280;49583;45.590;-122.498;2023-03-14T03:22:33;100786.20;;;5.29;82.52
50632;BME280;49583;45.590;-122.498;2023-03-14T03:24:47;100785.59;;;5.28;82.42
50632;BME280;49583;45.590;-122.498;2023-03-14T03:27:00;100788.02;;;5.27;82.40
50632;BME280;49583;45.590;-122.498;2023-03-14T03:29:14;100791.38;;;5.27;82.39
50632;BME280;49583;45.590;-122.498;2023-03-14T03:31:27;100796.56;;;5.26;82.36
50632;BME280;49583;45.590;-122.498;2023-03-14T03:33:41;100800.34;;;5.26;82.17
50632;BME280;49583;45.590;-122.498;2023-03-14T03:35:54;100806.56;;;5.26;82.40
50632;BME280;49583;45.590;-122.498;2023-03-14T03:38:11;100806.45;;;5.27;82.22
50632;BME280;49583;45.590;-122.498;2023-03-14T03:40:25;100809.70;;;5.27;82.18
50632;BME280;49583;45.590;-122.498;2023-03-14T03:42:38;100812.23;;;5.27;82.04
50632;BME280;49583;45.590;-122.498;2023-03-14T03:44:51;100817.48;;;5.26;82.15
50632;BME280;49583;45.590;-122.498;2023-03-14T03:47:04;100819.91;;;5.26;82.01
50632;BME280;49583;45.590;-122.498;2023-03-14T03:49:17;100820.92;;;5.27;82.01
50632;BME280;49583;45.590;-122.498;2023-03-14T03:51:29;100825.17;;;5.26;82.03
50632;BME280;49583;45.590;-122.498;2023-03-14T03:53:43;100826.91;;;5.25;81.96
50632;BME280;49583;45.590;-122.498;2023-03-14T03:56:00;100827.70;;;5.24;81.86
50632;BME280;49583;45.590;-122.498;2023-03-14T03:58:14;100826.65;;;5.23;81.87
50632;BME280;49583;45.590;-122.498;2023-03-14T04:00:27;100829.11;;;5.22;81.87
50632;BME280;49583;45.590;-122.498;2023-03-14T04:02:41;100830.34;;;5.21;81.96
50632;BME280;49583;45.590;-122.498;2023-03-14T04:04:57;100832.36;;;5.19;81.68
50632;BME280;49583;45.590;-122.498;2023-03-14T04:07:10;100835.40;;;5.16;81.70
50632;BME280;49583;45.590;-122.498;2023-03-14T04:09:28;100846.35;;;5.13;81.70
50632;BME280;49583;45.590;-122.498;2023-03-14T04:11:52;100853.95;;;5.09;81.58
50632;BME280;49583;45.590;-122.498;2023-03-14T04:14:14;100852.83;;;5.07;81.61
50632;BME280;49583;45.590;-122.498;2023-03-14T04:16:27;100859.20;;;5.04;81.64
50632;BME280;49583;45.590;-122.498;2023-03-14T04:18:53;100858.73;;;5.01;81.74
50632;BME280;49583;45.590;-122.498;2023-03-14T04:21:08;100856.23;;;5.00;81.79
50632;BME280;49583;45.590;-122.498;2023-03-14T04:23:35;100855.75;;;4.96;81.65
50632;BME280;49583;45.590;-122.498;2023-03-14T04:25:48;100853.23;;;4.93;81.67
50632;BME280;49583;45.590;-122.498;2023-03-14T04:28:03;100857.59;;;4.92;81.82
50632;BME280;49583;45.590;-122.498;2023-03-14T04:30:16;100857.84;;;4.91;81.77
50632;BME280;49583;45.590;-122.498;2023-03-14T04:32:34;100865.91;;;4.90;81.76
50632;BME280;49583;45.590;-122.498;2023-03-14T04:34:47;100867.70;;;4.88;81.69
50632;BME280;49583;45.590;-122.498;2023-03-14T04:37:00;100873.77;;;4.87;81.81
50632;BME280;49583;45.590;-122.498;2023-03-14T04:39:17;100880.02;;;4.85;81.77
50632;BME280;49583;45.590;-122.498;2023-03-14T04:41:39;100887.98;;;4.83;81.80
50632;BME280;49583;45.590;-122.498;2023-03-14T04:43:53;100895.07;;;4.82;81.89
50632;BME280;49583;45.590;-122.498;2023-03-14T04:46:07;100904.00;;;4.81;81.96
50632;BME280;49583;45.590;-122.498;2023-03-14T04:48:20;100913.10;;;4.81;81.98
50632;BME280;49583;45.590;-122.498;2023-03-14T04:50:33;100915.33;;;4.81;81.95
50632;BME280;49583;45.590;-122.498;2023-03-14T04:52:46;100911.86;;;4.81;82.18
50632;BME280;49583;45.590;-122.498;2023-03-14T04:54:59;100910.59;;;4.82;81.97
50632;BME280;49583;45.590;-122.498;2023-03-14T04:57:13;100910.77;;;4.83;82.12
50632;BME280;49583;45.590;-122.498;2023-03-14T04:59:26;100916.17;;;4.84;82.14
50632;BME280;49583;45.590;-122.498;2023-03-14T05:01:46;100919.05;;;4.84;82.16
50632;BME280;49583;45.590;-122.498;2023-03-14T05:04:18;100916.83;;;4.84;82.18
50632;BME280;49583;45.590;-122.498;2023-03-14T05:06:43;100922.85;;;4.84;82.25
50632;BME280;49583;45.590;-122.498;2023-03-14T05:09:14;100921.00;;;4.84;82.30
50632;BME280;49583;45.590;-122.498;2023-03-14T05:11:55;100926.32;;;4.82;82.20
50632;BME280;49583;45.590;-122.498;2023-03-14T05:14:17;100928.94;;;4.82;82.28
50632;BME280;49583;45.590;-122.498;2023-03-14T05:16:46;100938.45;;;4.83;82.35
50632;BME280;49583;45.590;-122.498;2023-03-14T05:19:21;100937.70;;;4.85;82.24
50632;BME280;49583;45.590;-122.498;2023-03-14T05:21:53;100945.63;;;4.85;82.19
50632;BME280;49583;45.590;-122.498;2023-03-14T05:24:32;100952.67;;;4.85;82.25
50632;BME280;49583;45.590;-122.498;2023-03-14T05:27:05;100953.48;;;4.85;82.36
50632;BME280;49583;45.590;-122.498;2023-03-14T05:29:42;100956.00;;;4.86;82.30
50632;BME280;49583;45.590;-122.498;2023-03-14T05:32:18;100957.82;;;4.87;82.15
50632;BME280;49583;45.590;-122.498;2023-03-14T05:34:49;100961.99;;;4.89;82.19
50632;BME280;49583;45.590;-122.498;2023-03-14T05:37:22;100964.58;;;4.89;82.37
50632;BME280;49583;45.590;-122.498;2023-03-14T05:39:53;100969.40;;;4.90;82.36
50632;BME280;49583;45.590;-122.498;2023-03-14T05:42:41;100975.71;;;4.92;82.24
50632;BME280;49583;45.590;-122.498;2023-03-14T05:45:12;100972.15;;;4.93;82.38
50632;BME280;49583;45.590;-122.498;2023-03-14T05:47:31;100977.70;;;4.94;82.29
50632;BME280;49583;45.590;-122.498;2023-03-14T05:50:20;100978.50;;;4.96;82.45
50632;BME280;49583;45.590;-122.498;2023-03-14T05:52:45;100975.31;;;4.98;82.36
50632;BME280;49583;45.590;-122.498;2023-03-14T05:55:19;100979.31;;;4.99;82.37
50632;BME280;49583;45.590;-122.498;2023-03-14T05:58:06;100984.64;;;4.98;82.28
50632;BME280;49583;45.590;-122.498;2023-03-14T06:00:39;100983.83;;;4.96;82.12
50632;BME280;49583;45.590;-122.498;2023-03-14T06:02:59;100984.98;;;4.94;82.22
50632;BME280;49583;45.590;-122.498;2023-03-14T06:05:14;100986.52;;;4.93;82.11
50632;BME280;49583;45.590;-122.498;2023-03-14T06:07:27;100987.19;;;4.93;82.13
50632;BME280;49583;45.590;-122.498;2023-03-14T06:09:40;100987.60;;;4.93;82.26
50632;BME280;49583;45.590;-122.498;2023-03-14T06:12:00;100985.88;;;4.93;82.16
50632;BME280;49583;45.590;-122.498;2023-03-14T06:14:17;100982.36;;;4.93;82.20
50632;BME280;49583;45.590;-122.498;2023-03-14T06:16:30;100979.33;;;4.92;82.18
50632;BME280;49583;45.590;-122.498;2023-03-14T06:18:45;100983.02;;;4.90;82.01
50632;BME280;49583;45.590;-122.498;2023-03-14T06:21:03;100983.64;;;4.86;81.98
50632;BME280;49583;45.590;-122.498;2023-03-14T06:23:17;100984.45;;;4.82;81.99
50632;BME280;49583;45.590;-122.498;2023-03-14T06:25:31;100987.13;;;4.79;81.92
50632;BME280;49583;45.590;-122.498;2023-03-14T06:27:45;100990.02;;;4.77;82.14
50632;BME280;49583;45.590;-122.498;2023-03-14T06:29:58;100992.07;;;4.75;81.97
50632;BME280;49583;45.590;-122.498;2023-03-14T06:32:12;100993.61;;;4.72;82.14
50632;BME280;49583;45.590;-122.498;2023-03-14T06:34:26;100993.95;;;4.70;82.10
50632;BME280;49583;45.590;-122.498;2023-03-14T06:36:39;100992.65;;;4.68;82.24
50632;BME280;49583;45.590;-122.498;2023-03-14T06:38:53;100996.70;;;4.64;82.19
50632;BME280;49583;45.590;-122.498;2023-03-14T06:41:08;100994.64;;;4.62;82.17
50632;BME280;49583;45.590;-122.498;2023-03-14T06:43:24;100990.77;;;4.61;82.23
50632;BME280;49583;45.590;-122.498;2023-03-14T06:45:37;100991.98;;;4.60;82.39
50632;BME280;49583;45.590;-122.498;2023-03-14T06:47:51;100996.10;;;4.57;82.38
50632;BME280;49583;45.590;-122.498;2023-03-14T06:50:11;101005.35;;;4.57;82.37
50632;BME280;49583;45.590;-122.498;2023-03-14T06:52:24;101011.52;;;4.53;82.36
50632;BME280;49583;45.590;-122.498;2023-03-14T06:54:37;101009.22;;;4.52;82.46
50632;BME280;49583;45.590;-122.498;2023-03-14T06:56:50;101012.04;;;4.52;82.49
50632;BME280;49583;45.590;-122.498;2023-03-14T06:59:03;101010.42;;;4.54;82.56
50632;BME280;49583;45.590;-122.498;2023-03-14T07:01:24;101007.69;;;4.55;82.49
50632;BME280;49583;45.590;-122.498;2023-03-14T07:03:44;101008.84;;;4.55;82.38
50632;BME280;49583;45.590;-122.498;2023-03-14T07:05:57;101006.76;;;4.55;82.46
50632;BME280;49583;45.590;-122.498;2023-03-14T07:08:10;101016.14;;;4.57;82.49
50632;BME280;49583;45.590;-122.498;2023-03-14T07:10:23;101007.58;;;4.56;82.47
50632;BME280;49583;45.590;-122.498;2023-03-14T07:12:36;101009.83;;;4.56;82.28
50632;BME280;49583;45.590;-122.498;2023-03-14T07:14:50;101009.86;;;4.55;82.40
50632;BME280;49583;45.590;-122.498;2023-03-14T07:17:03;101010.52;;;4.54;82.21
50632;BME280;49583;45.590;-122.498;2023-03-14T07:19:17;101011.19;;;4.54;82.27
50632;BME280;49583;45.590;-122.498;2023-03-14T07:21:29;101013.58;;;4.53;82.25
50632;BME280;49583;45.590;-122.498;2023-03-14T07:23:48;101013.29;;;4.54;82.48
50632;BME280;49583;45.590;-122.498;2023-03-14T07:26:01;101016.85;;;4.55;82.46
50632;BME280;49583;45.590;-122.498;2023-03-14T07:28:14;101019.21;;;4.56;82.37
50632;BME280;49583;45.590;-122.498;2023-03-14T07:30:28;101016.14;;;4.57;82.40
50632;BME280;49583;45.590;-122.498;2023-03-14T07:32:42;101017.64;;;4.57;82.40
50632;BME280;49583;45.590;-122.498;2023-03-14T07:34:55;101019.20;;;4.58;82.23
50632;BME280;49583;45.590;-122.498;2023-03-14T07:37:09;101017.45;;;4.57;82.22
50632;BME280;49583;45.590;-122.498;2023-03-14T07:39:22;101015.89;;;4.56;82.31
50632;BME280;49583;45.590;-122.498;2023-03-14T07:41:45;101018.85;;;4.55;82.07
50632;BME280;49583;45.590;-122.498;2023-03-14T07:44:12;101017.35;;;4.54;82.10
50632;BME280;49583;45.590;-122.498;2023-03-14T07:46:26;101016.06;;;4.54;82.13
50632;BME280;49583;45.590;-122.498;2023-03-14T07:48:39;101017.45;;;4.52;82.14
50632;BME280;49583;45.590;-122.498;2023-03-14T07:50:53;101013.81;;;4.50;82.07
50632;BME280;49583;45.590;-122.498;2023-03-14T07:53:08;101011.38;;;4.48;82.06
50632;BME280;49583;45.590;-122.498;2023-03-14T07:55:20;101019.01;;;4.47;82.10
50632;BME280;49583;45.590;-122.498;2023-03-14T07:57:34;101014.89;;;4.44;82.03
50632;BME280;49583;45.590;-122.498;2023-03-14T07:59:47;101016.88;;;4.43;82.07
50632;BME280;49583;45.590;-122.498;2023-03-14T08:02:01;101016.09;;;4.40;82.22
50632;BME280;49583;45.590;-122.498;2023-03-14T08:04:16;101011.02;;;4.37;82.04
50632;BME280;49583;45.590;-122.498;2023-03-14T08:06:28;101013.02;;;4.37;82.03
50632;BME280;49583;45.590;-122.498;2023-03-14T08:08:42;101017.21;;;4.36;82.00
50632;BME280;49583;45.590;-122.498;2023-03-14T08:10:55;101012.88;;;4.34;81.96
50632;BME280;49583;45.590;-122.498;2023-03-14T08:13:08;101014.34;;;4.32;81.98
50632;BME280;49583;45.590;-122.498;2023-03-14T08:15:21;101015.98;;;4.31;81.93
50632;BME280;49583;45.590;-122.498;2023-03-14T08:17:34;101014.10;;;4.31;81.94
50632;BME280;49583;45.590;-122.498;2023-03-14T08:19:47;101017.25;;;4.30;81.88
50632;BME280;49583;45.590;-122.498;2023-03-14T08:22:00;101020.63;;;4.30;81.87
50632;BME280;49583;45.590;-122.498;2023-03-14T08:24:12;101016.95;;;4.29;81.88
50632;BME280;49583;45.590;-122.498;2023-03-14T08:26:25;101016.80;;;4.29;81.89
50632;BME280;49583;45.590;-122.498;2023-03-14T08:28:38;101019.60;;;4.29;81.95
50632;BME280;49583;45.590;-122.498;2023-03-14T08:30:51;101011.45;;;4.30;82.01
50632;BME280;49583;45.590;-122.498;2023-03-14T08:33:07;101013.60;;;4.31;81.98
50632;BME280;49583;45.590;-122.498;2023-03-14T08:35:21;101016.61;;;4.33;82.04
50632;BME280;49583;45.590;-122.498;2023-03-14T08:37:35;101016.38;;;4.35;82.14
50632;BME280;49583;45.590;-122.498;2023-03-14T08:39:49;101010.98;;;4.33;82.17
50632;BME280;49583;45.590;-122.498;2023-03-14T08:42:02;101011.23;;;4.37;82.16
50632;BME280;49583;45.590;-122.498;2023-03-14T08:44:15;101006.75;;;4.38;82.32
50632;BME280;49583;45.590;-122.498;2023-03-14T08:46:32;101005.65;;;4.39;82.25
50632;BME280;49583;45.590;-122.498;2023-03-14T08:48:46;101005.66;;;4.41;82.22
50632;BME280;49583;45.590;-122.498;2023-03-14T08:51:01;101006.48;;;4.42;82.33
50632;BME280;49583;45.590;-122.498;2023-03-14T08:53:17;101003.91;;;4.43;82.26
50632;BME280;49583;45.590;-122.498;2023-03-14T08:55:31;100999.95;;;4.43;82.24
50632;BME280;49583;45.590;-122.498;2023-03-14T08:57:44;101004.14;;;4.45;82.29
50632;BME280;49583;45.590;-122.498;2023-03-14T08:59:58;101001.35;;;4.46;82.19
50632;BME280;49583;45.590;-122.498;2023-03-14T09:02:11;101007.42;;;4.48;82.22
50632;BME280;49583;45.590;-122.498;2023-03-14T09:04:24;101012.45;;;4.50;82.16
50632;BME280;49583;45.590;-122.498;2023-03-14T09:06:36;101012.04;;;4.49;81.92
50632;BME280;49583;45.590;-122.498;2023-03-14T09:08:49;101021.42;;;4.52;82.00
50632;BME280;49583;45.590;-122.498;2023-03-14T09:11:02;101026.30;;;4.55;82.00
50632;BME280;49583;45.590;-122.498;2023-03-14T09:13:15;101034.29;;;4.57;82.05
50632;BME280;49583;45.590;-122.498;2023-03-14T09:15:28;101039.67;;;4.59;81.86
50632;BME280;49583;45.590;-122.498;2023-03-14T09:17:41;101039.99;;;4.59;81.85
50632;BME280;49583;45.590;-122.498;2023-03-14T09:19:54;101037.20;;;4.61;81.92
50632;BME280;49583;45.590;-122.498;2023-03-14T09:22:09;101036.79;;;4.62;81.99
50632;BME280;49583;45.590;-122.498;2023-03-14T09:24:22;101038.05;;;4.64;81.92
50632;BME280;49583;45.590;-122.498;2023-03-14T09:26:35;101039.96;;;4.65;81.75
50632;BME280;49583;45.590;-122.498;2023-03-14T09:28:48;101038.59;;;4.65;81.63
50632;BME280;49583;45.590;-122.498;2023-03-14T09:31:07;101038.44;;;4.67;81.85
50632;BME280;49583;45.590;-122.498;2023-03-14T09:33:21;101040.56;;;4.69;81.74
50632;BME280;49583;45.590;-122.498;2023-03-14T09:35:35;101036.95;;;4.71;81.70
50632;BME280;49583;45.590;-122.498;2023-03-14T09:37:48;101039.95;;;4.72;81.69
50632;BME280;49583;45.590;-122.498;2023-03-14T09:40:01;101036.00;;;4.73;81.46
50632;BME280;49583;45.590;-122.498;2023-03-14T09:42:25;101036.79;;;4.73;81.52
50632;BME280;49583;45.590;-122.498;2023-03-14T09:44:42;101039.52;;;4.73;81.47
50632;BME280;49583;45.590;-122.498;2023-03-14T09:47:00;101034.45;;;4.74;81.45
50632;BME280;49583;45.590;-122.498;2023-03-14T09:49:17;101038.22;;;4.74;81.32
50632;BME280;49583;45.590;-122.498;2023-03-14T09:51:32;101035.14;;;4.72;81.29
50632;BME280;49583;45.590;-122.498;2023-03-14T09:53:46;101032.64;;;4.72;81.35
50632;BME280;49583;45.590;-122.498;2023-03-14T09:56:00;101032.89;;;4.72;81.42
50632;BME280;49583;45.590;-122.498;2023-03-14T09:58:16;101032.98;;;4.73;81.28
50632;BME280;49583;45.590;-122.498;2023-03-14T10:00:30;101032.36;;;4.72;81.25
50632;BME280;49583;45.590;-122.498;2023-03-14T10:02:47;101029.96;;;4.72;81.28
50632;BME280;49583;45.590;-122.498;2023-03-14T10:05:05;101029.48;;;4.72;81.35
50632;BME280;49583;45.590;-122.498;2023-03-14T10:07:23;101031.23;;;4.72;81.29
50632;BME280;49583;45.590;-122.498;2023-03-14T10:09:38;101030.40;;;4.68;80.82
50632;BME280;49583;45.590;-122.498;2023-03-14T10:11:52;101028.80;;;4.65;81.18
50632;BME280;49583;45.590;-122.498;2023-03-14T10:14:08;101026.45;;;4.61;81.05
50632;BME280;49583;45.590;-122.498;2023-03-14T10:16:31;101018.89;;;4.57;81.08
50632;BME280;49583;45.590;-122.498;2023-03-14T10:18:46;101015.59;;;4.53;81.16
50632;BME280;49583;45.590;-122.498;2023-03-14T10:21:08;101010.65;;;4.51;81.20
50632;BME280;49583;45.590;-122.498;2023-03-14T10:23:30;101008.85;;;4.49;81.33
50632;BME280;49583;45.590;-122.498;2023-03-14T10:25:45;101007.90;;;4.48;81.29
50632;BME280;49583;45.590;-122.498;2023-03-14T10:27:59;101005.89;;;4.50;81.43
50632;BME280;49583;45.590;-122.498;2023-03-14T10:30:32;101011.35;;;4.51;81.45
50632;BME280;49583;45.590;-122.498;2023-03-14T10:32:48;101004.90;;;4.51;81.56
50632;BME280;49583;45.590;-122.498;2023-03-14T10:35:21;101002.09;;;4.50;81.36
50632;BME280;49583;45.590;-122.498;2023-03-14T10:37:34;101001.93;;;4.50;81.30
50632;BME280;49583;45.590;-122.498;2023-03-14T10:39:50;100992.31;;;4.48;81.27
50632;BME280;49583;45.590;-122.498;2023-03-14T10:42:12;100991.85;;;4.50;81.47
50632;BME280;49583;45.590;-122.498;2023-03-14T10:44:27;100989.88;;;4.51;81.48
50632;BME280;49583;45.590;-122.498;2023-03-14T10:46:41;100982.70;;;4.50;81.39
50632;BME280;49583;45.590;-122.498;2023-03-14T10:49:12;100983.24;;;4.51;81.48
50632;BME280;49583;45.590;-122.498;2023-03-14T10:51:35;100983.23;;;4.53;81.51
50632;BME280;49583;45.590;-122.498;2023-03-14T10:53:49;100978.72;;;4.52;81.54
50632;BME280;49583;45.590;-122.498;2023-03-14T10:56:04;100980.25;;;4.52;81.52
50632;BME280;49583;45.590;-122.498;2023-03-14T10:58:26;100976.91;;;4.53;81.52
50632;BME280;49583;45.590;-122.498;2023-03-14T11:00:41;100977.43;;;4.54;81.60
50632;BME280;49583;45.590;-122.498;2023-03-14T11:03:06;100976.61;;;4.55;81.62
50632;BME280;49583;45.590;-122.498;2023-03-14T11:05:28;100978.85;;;4.56;81.52
50632;BME280;49583;45.590;-122.498;2023-03-14T11:07:44;100978.08;;;4.56;81.43
50632;BME280;49583;45.590;-122.498;2023-03-14T11:10:02;100979.73;;;4.57;81.45
50632;BME280;49583;45.590;-122.498;2023-03-14T11:12:35;100975.08;;;4.57;81.57
50632;BME280;49583;45.590;-122.498;2023-03-14T11:14:57;100975.05;;;4.58;81.60
50632;BME280;49583;45.590;-122.498;2023-03-14T11:17:18;100973.14;;;4.58;81.38
50632;BME280;49583;45.590;-122.498;2023-03-14T11:22:17;100975.27;;;4.59;81.42
50632;BME280;49583;45.590;-122.498;2023-03-14T11:24:44;100973.55;;;4.59;81.42
50632;BME280;49583;45.590;-122.498;2023-03-14T11:27:03;100975.02;;;4.59;81.56
50632;BME280;49583;45.590;-122.498;2023-03-14T11:29:23;100975.95;;;4.59;81.34
50632;BME280;49583;45.590;-122.498;2023-03-14T11:31:41;100978.56;;;4.58;81.57
50632;BME280;49583;45.590;-122.498;2023-03-14T11:33:59;100978.17;;;4.58;81.50
50632;BME280;49583;45.590;-122.498;2023-03-14T11:36:16;100976.73;;;4.57;81.44
50632;BME280;49583;45.590;-122.498;2023-03-14T11:38:38;100972.23;;;4.57;81.43
50632;BME280;49583;45.590;-122.498;2023-03-14T11:40:52;100968.89;;;4.55;81.28
50632;BME280;49583;45.590;-122.498;2023-03-14T11:43:13;100962.94;;;4.54;81.36
50632;BME280;49583;45.590;-122.498;2023-03-14T11:45:32;100957.55;;;4.53;81.33
50632;BME280;49583;45.590;-122.498;2023-03-14T11:47:48;100955.34;;;4.52;81.41
50632;BME280;49583;45.590;-122.498;2023-03-14T11:50:08;100950.10;;;4.52;81.41
50632;BME280;49583;45.590;-122.498;2023-03-14T11:52:28;100955.30;;;4.52;81.49
50632;BME280;49583;45.590;-122.498;2023-03-14T11:54:46;100950.92;;;4.51;81.45